sensor_id;sensor_type;location;lat;lon;timestamp;temperature;humidity
15638;DHT22;26604;53.596;10.042;2022-07-10T00:00:00;20.80;1.00
15638;DHT22;26604;53.596;10.042;2022-07-10T00:02:27;20.80;1.00
15638;DHT22;26604;53.596;10.042;2022-07-10T00:04:54;20.80;1.00
15638;DHT22;26604;53.596;10.042;2022-07-10T00:07:21;20.70;1.00
15638;DHT22;26604;53.596;10.042;2022-07-10T00:09:49;20.70;1.00
15638;DHT22;26604;53.596;10.042;2022-07-10T00:12:16;20.70;1.00
15638;DHT22;26604;53.596;10.042;2022-07-10T00:14:43;20.70;1.00
15638;DHT22;26604;53.596;10.042;2022-07-10T00:17:10;20.70;1.00
15638;DHT22;26604;53.596;10.042;2022-07-10T00:19:37;20.70;1.00
15638;DHT22;26604;53.596;10.042;2022-07-10T00:22:04;20.70;1.00
15638;DHT22;26604;53.596;10.042;2022-07-10T00:24:31;20.70;1.00
15638;DHT22;26604;53.596;10.042;2022-07-10T00:26:59;20.70;1.00
15638;DHT22;26604;53.596;10.042;2022-07-10T00:29:26;20.70;99.90
15638;DHT22;26604;53.596;10.042;2022-07-10T00:31:53;20.70;99.90
15638;DHT22;26604;53.596;10.042;2022-07-10T00:34:20;20.70;1.00
15638;DHT22;26604;53.596;10.042;2022-07-10T00:36:47;20.70;1.00
15638;DHT22;26604;53.596;10.042;2022-07-10T00:39:14;20.70;1.00
15638;DHT22;26604;53.596;10.042;2022-07-10T00:41:41;20.70;1.00
15638;DHT22;26604;53.596;10.042;2022-07-10T00:44:09;20.70;1.00
15638;DHT22;26604;53.596;10.042;2022-07-10T00:46:36;20.70;1.00
15638;DHT22;26604;53.596;10.042;2022-07-10T00:49:03;20.60;1.00
15638;DHT22;26604;53.596;10.042;2022-07-10T00:51:30;20.70;1.00
15638;DHT22;26604;53.596;10.042;2022-07-10T00:53:59;20.60;1.00
15638;DHT22;26604;53.596;10.042;2022-07-10T00:56:27;20.60;1.00
15638;DHT22;26604;53.596;10.042;2022-07-10T00:58:54;20.60;1.00
15638;DHT22;26604;53.596;10.042;2022-07-10T01:01:23;20.60;1.00
15638;DHT22;26604;53.596;10.042;2022-07-10T01:03:51;20.60;1.00
15638;DHT22;26604;53.596;10.042;2022-07-10T01:06:18;20.60;1.00
15638;DHT22;26604;53.596;10.042;2022-07-10T01:08:45;20.60;1.00
15638;DHT22;26604;53.596;10.042;2022-07-10T01:11:13;20.60;1.00
15638;DHT22;26604;53.596;10.042;2022-07-10T01:13:42;20.60;1.00
15638;DHT22;26604;53.596;10.042;2022-07-10T01:16:09;20.60;1.00
15638;DHT22;26604;53.596;10.042;2022-07-10T01:18:38;20.60;99.90
15638;DHT22;26604;53.596;10.042;2022-07-10T01:21:06;20.60;99.90
15638;DHT22;26604;53.596;10.042;2022-07-10T01:23:49;20.60;99.90
15638;DHT22;26604;53.596;10.042;2022-07-10T01:26:16;20.60;99.90
15638;DHT22;26604;53.596;10.042;2022-07-10T01:28:43;20.60;99.90
15638;DHT22;26604;53.596;10.042;2022-07-10T01:31:10;20.60;99.90
15638;DHT22;26604;53.596;10.042;2022-07-10T01:33:37;20.60;99.90
15638;DHT22;26604;53.596;10.042;2022-07-10T01:36:06;20.50;99.90
15638;DHT22;26604;53.596;10.042;2022-07-10T01:38:34;20.50;99.90
15638;DHT22;26604;53.596;10.042;2022-07-10T01:41:01;20.50;99.90
15638;DHT22;26604;53.596;10.042;2022-07-10T01:43:27;20.50;99.90
15638;DHT22;26604;53.596;10.042;2022-07-10T01:45:54;20.50;99.90
15638;DHT22;26604;53.596;10.042;2022-07-10T01:48:21;20.50;99.90
15638;DHT22;26604;53.596;10.042;2022-07-10T01:50:48;20.50;99.90
15638;DHT22;26604;53.596;10.042;2022-07-10T01:53:16;20.50;99.90
15638;DHT22;26604;53.596;10.042;2022-07-10T01:55:43;20.50;99.90
15638;DHT22;26604;53.596;10.042;2022-07-10T01:58:10;20.50;99.90
15638;DHT22;26604;53.596;10.042;2022-07-10T02:00:37;20.50;99.90
15638;DHT22;26604;53.596;10.042;2022-07-10T02:03:04;20.50;99.90
15638;DHT22;26604;53.596;10.042;2022-07-10T02:05:48;20.50;99.90
15638;DHT22;26604;53.596;10.042;2022-07-10T02:08:16;20.50;99.90
15638;DHT22;26604;53.596;10.042;2022-07-10T02:10:43;20.50;99.90
15638;DHT22;26604;53.596;10.042;2022-07-10T02:13:10;20.50;99.90
15638;DHT22;26604;53.596;10.042;2022-07-10T02:15:40;20.50;99.90
15638;DHT22;26604;53.596;10.042;2022-07-10T02:18:07;20.50;99.90
15638;DHT22;26604;53.596;10.042;2022-07-10T02:20:34;20.50;99.90
15638;DHT22;26604;53.596;10.042;2022-07-10T02:23:01;20.50;99.90
15638;DHT22;26604;53.596;10.042;2022-07-10T02:25:30;20.50;99.90
15638;DHT22;26604;53.596;10.042;2022-07-10T02:27:57;20.50;99.90
15638;DHT22;26604;53.596;10.042;2022-07-10T02:30:24;20.50;99.90
15638;DHT22;26604;53.596;10.042;2022-07-10T02:32:51;20.50;99.90
15638;DHT22;26604;53.596;10.042;2022-07-10T02:35:18;20.50;99.90
15638;DHT22;26604;53.596;10.042;2022-07-10T02:37:45;20.50;99.90
15638;DHT22;26604;53.596;10.042;2022-07-10T02:40:11;20.50;99.90
15638;DHT22;26604;53.596;10.042;2022-07-10T02:42:40;20.50;99.90
15638;DHT22;26604;53.596;10.042;2022-07-10T02:45:07;20.50;99.90
15638;DHT22;26604;53.596;10.042;2022-07-10T02:47:35;20.50;99.90
15638;DHT22;26604;53.596;10.042;2022-07-10T02:50:01;20.50;99.90
15638;DHT22;26604;53.596;10.042;2022-07-10T02:52:28;20.50;99.90
15638;DHT22;26604;53.596;10.042;2022-07-10T02:54:57;20.50;99.90
15638;DHT22;26604;53.596;10.042;2022-07-10T02:57:24;20.50;99.90
15638;DHT22;26604;53.596;10.042;2022-07-10T02:59:53;20.50;99.90
15638;DHT22;26604;53.596;10.042;2022-07-10T03:02:20;20.40;99.90
15638;DHT22;26604;53.596;10.042;2022-07-10T03:04:47;20.50;99.90
15638;DHT22;26604;53.596;10.042;2022-07-10T03:07:13;20.50;99.90
15638;DHT22;26604;53.596;10.042;2022-07-10T03:09:40;20.50;99.90
15638;DHT22;26604;53.596;10.042;2022-07-10T03:12:07;20.50;99.90
15638;DHT22;26604;53.596;10.042;2022-07-10T03:14:34;20.50;99.90
15638;DHT22;26604;53.596;10.042;2022-07-10T03:17:03;20.50;99.90
15638;DHT22;26604;53.596;10.042;2022-07-10T03:19:30;20.50;99.90
15638;DHT22;26604;53.596;10.042;2022-07-10T03:21:58;20.50;99.90
15638;DHT22;26604;53.596;10.042;2022-07-10T03:24:25;20.40;99.90
15638;DHT22;26604;53.596;10.042;2022-07-10T03:26:52;20.40;99.90
15638;DHT22;26604;53.596;10.042;2022-07-10T03:29:19;20.40;99.90
15638;DHT22;26604;53.596;10.042;2022-07-10T03:31:47;20.40;99.90
15638;DHT22;26604;53.596;10.042;2022-07-10T03:34:15;20.40;99.90
15638;DHT22;26604;53.596;10.042;2022-07-10T03:36:42;20.50;99.90
15638;DHT22;26604;53.596;10.042;2022-07-10T03:39:09;20.40;99.90
15638;DHT22;26604;53.596;10.042;2022-07-10T03:41:36;20.40;99.90
15638;DHT22;26604;53.596;10.042;2022-07-10T03:44:03;20.40;99.90
15638;DHT22;26604;53.596;10.042;2022-07-10T03:46:31;20.40;99.90
15638;DHT22;26604;53.596;10.042;2022-07-10T03:48:58;20.40;99.90
15638;DHT22;26604;53.596;10.042;2022-07-10T03:51:26;20.40;99.90
15638;DHT22;26604;53.596;10.042;2022-07-10T03:53:53;20.40;99.90
15638;DHT22;26604;53.596;10.042;2022-07-10T03:56:20;20.40;99.90
15638;DHT22;26604;53.596;10.042;2022-07-10T03:59:04;20.40;99.90
15638;DHT22;26604;53.596;10.042;2022-07-10T04:01:31;20.40;99.90
15638;DHT22;26604;53.596;10.042;2022-07-10T04:03:58;20.40;99.90
15638;DHT22;26604;53.596;10.042;2022-07-10T04:06:26;20.40;99.90
15638;DHT22;26604;53.596;10.042;2022-07-10T04:08:53;20.40;99.90
15638;DHT22;26604;53.596;10.042;2022-07-10T04:11:20;20.40;99.90
15638;DHT22;26604;53.596;10.042;2022-07-10T04:13:47;20.40;99.90
15638;DHT22;26604;53.596;10.042;2022-07-10T04:16:13;20.40;99.90
15638;DHT22;26604;53.596;10.042;2022-07-10T04:18:40;20.40;99.90
15638;DHT22;26604;53.596;10.042;2022-07-10T04:21:08;20.40;99.90
15638;DHT22;26604;53.596;10.042;2022-07-10T04:23:36;20.40;99.90
15638;DHT22;26604;53.596;10.042;2022-07-10T04:26:03;20.30;99.90
15638;DHT22;26604;53.596;10.042;2022-07-10T04:28:30;20.30;99.90
15638;DHT22;26604;53.596;10.042;2022-07-10T04:30:57;20.30;99.90
15638;DHT22;26604;53.596;10.042;2022-07-10T04:33:25;20.30;99.90
15638;DHT22;26604;53.596;10.042;2022-07-10T04:35:52;20.30;99.90
15638;DHT22;26604;53.596;10.042;2022-07-10T04:38:18;20.30;99.90
15638;DHT22;26604;53.596;10.042;2022-07-10T04:40:47;20.30;99.90
15638;DHT22;26604;53.596;10.042;2022-07-10T04:43:14;20.30;99.90
15638;DHT22;26604;53.596;10.042;2022-07-10T04:45:41;20.30;99.90
15638;DHT22;26604;53.596;10.042;2022-07-10T04:48:08;20.30;99.90
15638;DHT22;26604;53.596;10.042;2022-07-10T04:50:35;20.30;99.90
15638;DHT22;26604;53.596;10.042;2022-07-10T04:53:02;20.30;99.90
15638;DHT22;26604;53.596;10.042;2022-07-10T04:55:29;20.30;99.90
15638;DHT22;26604;53.596;10.042;2022-07-10T04:57:57;20.30;99.90
15638;DHT22;26604;53.596;10.042;2022-07-10T05:00:24;20.30;99.90
15638;DHT22;26604;53.596;10.042;2022-07-10T05:02:51;20.30;99.90
15638;DHT22;26604;53.596;10.042;2022-07-10T05:05:18;20.30;99.90
15638;DHT22;26604;53.596;10.042;2022-07-10T05:07:45;20.30;99.90
15638;DHT22;26604;53.596;10.042;2022-07-10T05:10:12;20.30;99.90
15638;DHT22;26604;53.596;10.042;2022-07-10T05:12:38;20.30;99.90
15638;DHT22;26604;53.596;10.042;2022-07-10T05:15:08;20.30;99.90
15638;DHT22;26604;53.596;10.042;2022-07-10T05:17:35;20.20;99.90
15638;DHT22;26604;53.596;10.042;2022-07-10T05:20:02;20.20;99.90
15638;DHT22;26604;53.596;10.042;2022-07-10T05:22:30;20.20;99.90
15638;DHT22;26604;53.596;10.042;2022-07-10T05:24:56;20.20;72.90
15638;DHT22;26604;53.596;10.042;2022-07-10T05:27:23;20.20;24.80
15638;DHT22;26604;53.596;10.042;2022-07-10T05:29:51;20.20;1.00
15638;DHT22;26604;53.596;10.042;2022-07-10T05:32:19;20.20;1.00
15638;DHT22;26604;53.596;10.042;2022-07-10T05:34:46;20.20;1.00
15638;DHT22;26604;53.596;10.042;2022-07-10T05:37:13;20.20;1.30
15638;DHT22;26604;53.596;10.042;2022-07-10T05:39:40;20.20;10.00
15638;DHT22;26604;53.596;10.042;2022-07-10T05:42:07;20.20;14.50
15638;DHT22;26604;53.596;10.042;2022-07-10T05:44:34;20.20;17.50
15638;DHT22;26604;53.596;10.042;2022-07-10T05:47:01;20.20;14.30
15638;DHT22;26604;53.596;10.042;2022-07-10T05:49:29;20.20;11.00
15638;DHT22;26604;53.596;10.042;2022-07-10T05:51:57;20.20;6.70
15638;DHT22;26604;53.596;10.042;2022-07-10T05:54:24;20.20;1.00
15638;DHT22;26604;53.596;10.042;2022-07-10T05:56:51;20.20;1.00
15638;DHT22;26604;53.596;10.042;2022-07-10T05:59:18;20.20;1.00
15638;DHT22;26604;53.596;10.042;2022-07-10T06:01:45;20.20;1.00
15638;DHT22;26604;53.596;10.042;2022-07-10T06:04:12;20.20;1.00
15638;DHT22;26604;53.596;10.042;2022-07-10T06:06:40;20.20;1.00
15638;DHT22;26604;53.596;10.042;2022-07-10T06:09:08;20.20;1.00
15638;DHT22;26604;53.596;10.042;2022-07-10T06:11:34;20.10;1.00
15638;DHT22;26604;53.596;10.042;2022-07-10T06:14:02;20.10;1.00
15638;DHT22;26604;53.596;10.042;2022-07-10T06:16:29;20.10;1.00
15638;DHT22;26604;53.596;10.042;2022-07-10T06:18:56;20.10;1.00
15638;DHT22;26604;53.596;10.042;2022-07-10T06:21:23;20.10;1.00
15638;DHT22;26604;53.596;10.042;2022-07-10T06:23:51;20.10;1.00
15638;DHT22;26604;53.596;10.042;2022-07-10T06:26:18;20.10;1.00
15638;DHT22;26604;53.596;10.042;2022-07-10T06:28:45;20.10;1.00
15638;DHT22;26604;53.596;10.042;2022-07-10T06:31:12;20.10;1.00
15638;DHT22;26604;53.596;10.042;2022-07-10T06:33:39;20.10;1.00
15638;DHT22;26604;53.596;10.042;2022-07-10T06:36:06;20.10;1.00
15638;DHT22;26604;53.596;10.042;2022-07-10T06:38:33;20.10;1.00
15638;DHT22;26604;53.596;10.042;2022-07-10T06:41:01;20.10;1.00
15638;DHT22;26604;53.596;10.042;2022-07-10T06:43:28;20.10;1.00
15638;DHT22;26604;53.596;10.042;2022-07-10T06:45:56;20.10;1.00
15638;DHT22;26604;53.596;10.042;2022-07-10T06:48:23;20.10;99.90
15638;DHT22;26604;53.596;10.042;2022-07-10T06:50:49;20.10;99.90
15638;DHT22;26604;53.596;10.042;2022-07-10T06:53:16;20.10;99.90
15638;DHT22;26604;53.596;10.042;2022-07-10T06:55:43;20.10;99.90
15638;DHT22;26604;53.596;10.042;2022-07-10T06:58:11;20.10;1.00
15638;DHT22;26604;53.596;10.042;2022-07-10T07:00:38;20.00;99.90
15638;DHT22;26604;53.596;10.042;2022-07-10T07:03:05;20.00;99.90
15638;DHT22;26604;53.596;10.042;2022-07-10T07:05:32;20.00;99.90
15638;DHT22;26604;53.596;10.042;2022-07-10T07:07:59;20.10;99.90
15638;DHT22;26604;53.596;10.042;2022-07-10T07:10:26;20.10;20.40
15638;DHT22;26604;53.596;10.042;2022-07-10T07:12:53;20.00;1.00
15638;DHT22;26604;53.596;10.042;2022-07-10T07:15:21;20.10;1.00
15638;DHT22;26604;53.596;10.042;2022-07-10T07:17:49;20.00;99.90
15638;DHT22;26604;53.596;10.042;2022-07-10T07:20:36;20.10;99.90
15638;DHT22;26604;53.596;10.042;2022-07-10T07:23:22;20.00;1.00
15638;DHT22;26604;53.596;10.042;2022-07-10T07:25:49;20.00;1.00
15638;DHT22;26604;53.596;10.042;2022-07-10T07:28:16;20.00;1.00
15638;DHT22;26604;53.596;10.042;2022-07-10T07:30:45;20.00;1.00
15638;DHT22;26604;53.596;10.042;2022-07-10T07:33:12;20.00;1.00
15638;DHT22;26604;53.596;10.042;2022-07-10T07:35:39;20.00;1.00
15638;DHT22;26604;53.596;10.042;2022-07-10T07:38:07;20.00;99.90
15638;DHT22;26604;53.596;10.042;2022-07-10T07:40:34;20.00;65.60
15638;DHT22;26604;53.596;10.042;2022-07-10T07:43:03;20.00;1.00
15638;DHT22;26604;53.596;10.042;2022-07-10T07:45:29;20.00;1.00
15638;DHT22;26604;53.596;10.042;2022-07-10T07:47:58;20.00;1.00
15638;DHT22;26604;53.596;10.042;2022-07-10T07:50:28;20.00;99.90
15638;DHT22;26604;53.596;10.042;2022-07-10T07:52:56;20.00;1.00
15638;DHT22;26604;53.596;10.042;2022-07-10T07:55:25;20.00;99.90
15638;DHT22;26604;53.596;10.042;2022-07-10T07:57:53;20.00;99.90
15638;DHT22;26604;53.596;10.042;2022-07-10T08:00:21;20.00;99.90
15638;DHT22;26604;53.596;10.042;2022-07-10T08:02:49;20.00;1.00
15638;DHT22;26604;53.596;10.042;2022-07-10T08:05:18;20.00;99.90
15638;DHT22;26604;53.596;10.042;2022-07-10T08:07:47;20.00;99.90
15638;DHT22;26604;53.596;10.042;2022-07-10T08:10:15;20.00;99.90
15638;DHT22;26604;53.596;10.042;2022-07-10T08:12:43;20.00;99.90
15638;DHT22;26604;53.596;10.042;2022-07-10T08:15:12;20.00;47.60
15638;DHT22;26604;53.596;10.042;2022-07-10T08:17:39;20.00;1.00
15638;DHT22;26604;53.596;10.042;2022-07-10T08:20:09;20.00;99.90
15638;DHT22;26604;53.596;10.042;2022-07-10T08:22:39;20.00;1.00
15638;DHT22;26604;53.596;10.042;2022-07-10T08:25:06;20.00;99.90
15638;DHT22;26604;53.596;10.042;2022-07-10T08:27:33;20.10;99.90
15638;DHT22;26604;53.596;10.042;2022-07-10T08:30:01;20.10;29.90
15638;DHT22;26604;53.596;10.042;2022-07-10T08:32:28;20.10;91.10
15638;DHT22;26604;53.596;10.042;2022-07-10T08:34:55;20.10;99.90
15638;DHT22;26604;53.596;10.042;2022-07-10T08:37:21;20.10;99.90
15638;DHT22;26604;53.596;10.042;2022-07-10T08:39:50;20.10;1.00
15638;DHT22;26604;53.596;10.042;2022-07-10T08:42:18;20.10;1.00
15638;DHT22;26604;53.596;10.042;2022-07-10T08:44:45;20.10;1.00
15638;DHT22;26604;53.596;10.042;2022-07-10T08:47:13;20.10;30.30
15638;DHT22;26604;53.596;10.042;2022-07-10T08:49:46;20.10;99.90
15638;DHT22;26604;53.596;10.042;2022-07-10T08:52:23;20.20;99.90
15638;DHT22;26604;53.596;10.042;2022-07-10T08:54:53;20.10;99.90
15638;DHT22;26604;53.596;10.042;2022-07-10T08:57:22;20.20;99.90
15638;DHT22;26604;53.596;10.042;2022-07-10T08:59:50;20.20;1.00
15638;DHT22;26604;53.596;10.042;2022-07-10T09:02:16;20.20;1.00
15638;DHT22;26604;53.596;10.042;2022-07-10T09:04:43;20.20;1.00
15638;DHT22;26604;53.596;10.042;2022-07-10T09:07:11;20.20;85.50
15638;DHT22;26604;53.596;10.042;2022-07-10T09:09:53;20.20;1.00
15638;DHT22;26604;53.596;10.042;2022-07-10T09:12:20;20.20;1.00
15638;DHT22;26604;53.596;10.042;2022-07-10T09:14:48;20.20;99.90
15638;DHT22;26604;53.596;10.042;2022-07-10T09:17:15;20.20;99.90
15638;DHT22;26604;53.596;10.042;2022-07-10T09:19:42;20.20;1.00
15638;DHT22;26604;53.596;10.042;2022-07-10T09:22:11;20.20;1.00
15638;DHT22;26604;53.596;10.042;2022-07-10T09:24:39;20.20;99.90
15638;DHT22;26604;53.596;10.042;2022-07-10T09:27:09;20.20;1.00
15638;DHT22;26604;53.596;10.042;2022-07-10T09:29:45;20.20;1.00
15638;DHT22;26604;53.596;10.042;2022-07-10T09:32:12;20.20;99.90
15638;DHT22;26604;53.596;10.042;2022-07-10T09:34:41;20.20;99.90
15638;DHT22;26604;53.596;10.042;2022-07-10T09:37:21;20.20;1.00
15638;DHT22;26604;53.596;10.042;2022-07-10T09:39:52;20.20;1.00
15638;DHT22;26604;53.596;10.042;2022-07-10T09:42:29;20.20;99.90
15638;DHT22;26604;53.596;10.042;2022-07-10T09:45:16;20.20;99.90
15638;DHT22;26604;53.596;10.042;2022-07-10T09:47:44;20.20;1.00
15638;DHT22;26604;53.596;10.042;2022-07-10T09:50:24;20.20;1.00
15638;DHT22;26604;53.596;10.042;2022-07-10T09:52:52;20.20;99.90
15638;DHT22;26604;53.596;10.042;2022-07-10T09:55:20;20.30;99.90
15638;DHT22;26604;53.596;10.042;2022-07-10T09:57:55;20.20;99.90
15638;DHT22;26604;53.596;10.042;2022-07-10T10:00:27;20.20;99.90
15638;DHT22;26604;53.596;10.042;2022-07-10T10:02:58;20.20;99.90
15638;DHT22;26604;53.596;10.042;2022-07-10T10:05:36;20.20;99.90
15638;DHT22;26604;53.596;10.042;2022-07-10T10:08:11;20.20;94.20
15638;DHT22;26604;53.596;10.042;2022-07-10T10:10:43;20.30;58.30
15638;DHT22;26604;53.596;10.042;2022-07-10T10:13:15;20.30;65.20
15638;DHT22;26604;53.596;10.042;2022-07-10T10:15:43;20.20;33.40
15638;DHT22;26604;53.596;10.042;2022-07-10T10:18:10;20.30;3.20
15638;DHT22;26604;53.596;10.042;2022-07-10T10:20:40;20.30;1.00
15638;DHT22;26604;53.596;10.042;2022-07-10T10:23:12;20.30;1.00
15638;DHT22;26604;53.596;10.042;2022-07-10T10:25:39;20.30;1.00
15638;DHT22;26604;53.596;10.042;2022-07-10T10:28:09;20.30;1.00
15638;DHT22;26604;53.596;10.042;2022-07-10T10:30:39;20.30;1.00
15638;DHT22;26604;53.596;10.042;2022-07-10T10:33:40;20.30;1.00
15638;DHT22;26604;53.596;10.042;2022-07-10T10:36:08;20.30;99.90
15638;DHT22;26604;53.596;10.042;2022-07-10T10:39:02;20.30;99.90
15638;DHT22;26604;53.596;10.042;2022-07-10T10:41:31;20.30;99.90
15638;DHT22;26604;53.596;10.042;2022-07-10T10:44:27;20.30;99.90
15638;DHT22;26604;53.596;10.042;2022-07-10T10:47:08;20.30;99.90
15638;DHT22;26604;53.596;10.042;2022-07-10T10:49:49;20.30;37.40
15638;DHT22;26604;53.596;10.042;2022-07-10T10:52:17;20.30;1.00
15638;DHT22;26604;53.596;10.042;2022-07-10T10:55:02;20.30;1.00
15638;DHT22;26604;53.596;10.042;2022-07-10T10:57:40;20.30;1.00
15638;DHT22;26604;53.596;10.042;2022-07-10T11:00:14;20.30;1.00
15638;DHT22;26604;53.596;10.042;2022-07-10T11:02:43;20.30;99.90
15638;DHT22;26604;53.596;10.042;2022-07-10T11:05:38;20.30;99.90
15638;DHT22;26604;53.596;10.042;2022-07-10T11:08:07;20.30;99.90
15638;DHT22;26604;53.596;10.042;2022-07-10T11:10:35;20.30;1.00
15638;DHT22;26604;53.596;10.042;2022-07-10T11:13:04;20.30;1.00
15638;DHT22;26604;53.596;10.042;2022-07-10T11:15:33;20.30;1.00
15638;DHT22;26604;53.596;10.042;2022-07-10T11:18:05;20.30;1.00
15638;DHT22;26604;53.596;10.042;2022-07-10T11:20:33;20.30;1.00
15638;DHT22;26604;53.596;10.042;2022-07-10T11:23:17;20.30;1.00
15638;DHT22;26604;53.596;10.042;2022-07-10T11:25:49;20.40;99.90
15638;DHT22;26604;53.596;10.042;2022-07-10T11:28:40;20.40;99.90
15638;DHT22;26604;53.596;10.042;2022-07-10T11:31:08;20.30;99.90
15638;DHT22;26604;53.596;10.042;2022-07-10T11:33:41;20.40;99.90
15638;DHT22;26604;53.596;10.042;2022-07-10T11:36:10;20.40;93.10
15638;DHT22;26604;53.596;10.042;2022-07-10T11:38:39;20.40;21.30
15638;DHT22;26604;53.596;10.042;2022-07-10T11:41:12;20.40;1.00
15638;DHT22;26604;53.596;10.042;2022-07-10T11:43:49;20.40;1.00
15638;DHT22;26604;53.596;10.042;2022-07-10T11:46:16;20.40;1.00
15638;DHT22;26604;53.596;10.042;2022-07-10T11:48:45;20.30;1.00
15638;DHT22;26604;53.596;10.042;2022-07-10T11:51:20;20.40;1.00
15638;DHT22;26604;53.596;10.042;2022-07-10T11:53:56;20.40;1.00
15638;DHT22;26604;53.596;10.042;2022-07-10T11:56:24;20.40;99.90
15638;DHT22;26604;53.596;10.042;2022-07-10T11:58:55;20.40;99.90
15638;DHT22;26604;53.596;10.042;2022-07-10T12:01:22;20.40;99.90
15638;DHT22;26604;53.596;10.042;2022-07-10T12:04:02;20.40;99.90
15638;DHT22;26604;53.596;10.042;2022-07-10T12:06:30;20.40;99.90
15638;DHT22;26604;53.596;10.042;2022-07-10T12:09:02;20.40;99.90
15638;DHT22;26604;53.596;10.042;2022-07-10T12:11:29;20.40;75.60
15638;DHT22;26604;53.596;10.042;2022-07-10T12:14:10;20.40;1.00
15638;DHT22;26604;53.596;10.042;2022-07-10T12:16:38;20.40;1.00
15638;DHT22;26604;53.596;10.042;2022-07-10T12:19:07;20.40;1.00
15638;DHT22;26604;53.596;10.042;2022-07-10T12:21:34;20.40;1.00
15638;DHT22;26604;53.596;10.042;2022-07-10T12:24:02;20.40;1.00
15638;DHT22;26604;53.596;10.042;2022-07-10T12:26:33;20.40;1.00
15638;DHT22;26604;53.596;10.042;2022-07-10T12:29:00;20.40;1.00
15638;DHT22;26604;53.596;10.042;2022-07-10T12:31:29;20.40;1.00
15638;DHT22;26604;53.596;10.042;2022-07-10T12:33:58;20.40;1.00
15638;DHT22;26604;53.596;10.042;2022-07-10T12:36:41;20.40;1.00
15638;DHT22;26604;53.596;10.042;2022-07-10T12:39:09;20.40;1.00
15638;DHT22;26604;53.596;10.042;2022-07-10T12:41:58;20.40;1.00
15638;DHT22;26604;53.596;10.042;2022-07-10T12:44:46;20.40;1.00
15638;DHT22;26604;53.596;10.042;2022-07-10T12:47:14;20.40;1.00
15638;DHT22;26604;53.596;10.042;2022-07-10T12:49:49;20.40;1.00
15638;DHT22;26604;53.596;10.042;2022-07-10T12:52:22;20.40;1.00
15638;DHT22;26604;53.596;10.042;2022-07-10T12:55:05;20.40;1.00
15638;DHT22;26604;53.596;10.042;2022-07-10T12:57:32;20.40;1.00
15638;DHT22;26604;53.596;10.042;2022-07-10T13:00:03;20.40;1.00
15638;DHT22;26604;53.596;10.042;2022-07-10T13:02:31;20.40;1.00
15638;DHT22;26604;53.596;10.042;2022-07-10T13:04:58;20.40;4.80
15638;DHT22;26604;53.596;10.042;2022-07-10T13:07:31;20.40;23.60
15638;DHT22;26604;53.596;10.042;2022-07-10T13:09:59;20.40;21.00
15638;DHT22;26604;53.596;10.042;2022-07-10T13:12:27;20.40;17.90
15638;DHT22;26604;53.596;10.042;2022-07-10T13:14:54;20.40;45.40
15638;DHT22;26604;53.596;10.042;2022-07-10T13:17:21;20.40;95.20
15638;DHT22;26604;53.596;10.042;2022-07-10T13:19:49;20.50;99.90
15638;DHT22;26604;53.596;10.042;2022-07-10T13:22:16;20.50;99.90
15638;DHT22;26604;53.596;10.042;2022-07-10T13:24:44;20.40;99.90
15638;DHT22;26604;53.596;10.042;2022-07-10T13:27:11;20.40;99.90
15638;DHT22;26604;53.596;10.042;2022-07-10T13:29:38;20.50;99.90
15638;DHT22;26604;53.596;10.042;2022-07-10T13:32:06;20.50;99.90
15638;DHT22;26604;53.596;10.042;2022-07-10T13:34:33;20.50;99.90
15638;DHT22;26604;53.596;10.042;2022-07-10T13:37:00;20.50;99.90
15638;DHT22;26604;53.596;10.042;2022-07-10T13:39:27;20.50;99.90
15638;DHT22;26604;53.596;10.042;2022-07-10T13:41:56;20.40;99.90
15638;DHT22;26604;53.596;10.042;2022-07-10T13:44:23;20.50;99.90
15638;DHT22;26604;53.596;10.042;2022-07-10T13:46:49;20.50;99.90
15638;DHT22;26604;53.596;10.042;2022-07-10T13:49:17;20.50;99.90
15638;DHT22;26604;53.596;10.042;2022-07-10T13:51:44;20.50;99.90
15638;DHT22;26604;53.596;10.042;2022-07-10T13:54:11;20.50;99.90
15638;DHT22;26604;53.596;10.042;2022-07-10T13:56:38;20.50;99.90
15638;DHT22;26604;53.596;10.042;2022-07-10T13:59:06;20.50;99.90
15638;DHT22;26604;53.596;10.042;2022-07-10T14:01:33;20.50;99.90
15638;DHT22;26604;53.596;10.042;2022-07-10T14:04:00;20.50;99.90
15638;DHT22;26604;53.596;10.042;2022-07-10T14:06:27;20.50;99.90
15638;DHT22;26604;53.596;10.042;2022-07-10T14:08:54;20.50;99.90
15638;DHT22;26604;53.596;10.042;2022-07-10T14:11:21;20.50;99.90
15638;DHT22;26604;53.596;10.042;2022-07-10T14:13:48;20.50;99.90
15638;DHT22;26604;53.596;10.042;2022-07-10T14:16:16;20.50;99.90
15638;DHT22;26604;53.596;10.042;2022-07-10T14:18:44;20.50;99.90
15638;DHT22;26604;53.596;10.042;2022-07-10T14:21:11;20.50;99.90
15638;DHT22;26604;53.596;10.042;2022-07-10T14:23:40;20.50;99.90
15638;DHT22;26604;53.596;10.042;2022-07-10T14:26:09;20.50;99.90
15638;DHT22;26604;53.596;10.042;2022-07-10T14:28:37;20.50;99.90
15638;DHT22;26604;53.596;10.042;2022-07-10T14:31:05;20.50;99.90
15638;DHT22;26604;53.596;10.042;2022-07-10T14:33:34;20.50;99.90
15638;DHT22;26604;53.596;10.042;2022-07-10T14:36:03;20.50;81.90
15638;DHT22;26604;53.596;10.042;2022-07-10T14:38:30;20.50;39.60
15638;DHT22;26604;53.596;10.042;2022-07-10T14:40:57;20.50;33.50
15638;DHT22;26604;53.596;10.042;2022-07-10T14:43:24;20.50;25.90
15638;DHT22;26604;53.596;10.042;2022-07-10T14:45:51;20.50;1.00
15638;DHT22;26604;53.596;10.042;2022-07-10T14:48:18;20.50;1.00
15638;DHT22;26604;53.596;10.042;2022-07-10T14:50:46;20.50;1.00
15638;DHT22;26604;53.596;10.042;2022-07-10T14:53:13;20.50;1.00
15638;DHT22;26604;53.596;10.042;2022-07-10T14:55:40;20.50;1.00
15638;DHT22;26604;53.596;10.042;2022-07-10T14:58:07;20.50;1.00
15638;DHT22;26604;53.596;10.042;2022-07-10T15:00:34;20.50;1.00
15638;DHT22;26604;53.596;10.042;2022-07-10T15:03:01;20.50;1.00
15638;DHT22;26604;53.596;10.042;2022-07-10T15:05:28;20.50;1.00
15638;DHT22;26604;53.596;10.042;2022-07-10T15:07:56;20.50;1.00
15638;DHT22;26604;53.596;10.042;2022-07-10T15:10:24;20.50;1.00
15638;DHT22;26604;53.596;10.042;2022-07-10T15:12:50;20.50;1.00
15638;DHT22;26604;53.596;10.042;2022-07-10T15:15:18;20.50;1.00
15638;DHT22;26604;53.596;10.042;2022-07-10T15:17:45;20.50;1.00
15638;DHT22;26604;53.596;10.042;2022-07-10T15:20:12;20.50;1.00
15638;DHT22;26604;53.596;10.042;2022-07-10T15:22:39;20.50;1.00
15638;DHT22;26604;53.596;10.042;2022-07-10T15:25:08;20.50;1.00
15638;DHT22;26604;53.596;10.042;2022-07-10T15:27:35;20.50;99.90
15638;DHT22;26604;53.596;10.042;2022-07-10T15:30:03;20.50;99.90
15638;DHT22;26604;53.596;10.042;2022-07-10T15:32:30;20.50;99.90